EDMA/AGB METAR and TAF weather

Enter ICAO airport designator
Station Type Date Time Source
EDMA METAR 2020/09/20 00:50 UTC NOAA

EDMA 200050Z AUTO 02003KT 3600 // NCD 10/10 Q1016


Station Type Date Time Source
EDMA Decoded METAR 2020/09/20 00:50 UTC NOAA

Augsburg, Germany (EDMA) 48-26N 010-56E 463M
Sep 19, 2020 - 08:50 PM EDT / 2020.09.20 0050 UTC
Wind: from the NNE (020 degrees) at 3 MPH (3 KT):0
Visibility: 2 mile(s):0
Temperature: 50 F (10 C)
Dew Point: 50 F (10 C)
Relative Humidity: 100%
Pressure (altimeter): 30.00 in. Hg (1016 hPa)
ob: EDMA 200050Z AUTO 02003KT 3600 // NCD 10/10 Q1016
cycle: 1

Station Type Date Time Source
EDMA TAF 2010/02/22 13:50 UTC NOAA

METAR EDMA 221350Z 23006KT CAVOK 10/02 Q0996

Example: see airport list